Time;durP1;ratioP1;P1;durP2;ratioP2;P2;SDS_P1;SDS_P2;PMS_P1;PMS_P2;Temp;Humidity;BMP_temperature;BMP_pressure;BME280_temperature;BME280_humidity;BME280_pressure;Samples;Min_cycle;Max_cycle;Signal;HPM_P1;HPM_P2
2023/04/05 00:01:21;;;;;;;10.10;9.50;;;;;;;;;;5014237;28;20087;-51
2023/04/05 00:03:46;;;;;;;9.88;9.27;;;;;;;;;;5014698;28;20683;-53
2023/04/05 00:06:12;;;;;;;10.90;10.20;;;;;;;;;;5013704;28;20048;-52
2023/04/05 00:08:38;;;;;;;9.43;8.82;;;;;;;;;;5012425;28;20658;-50
2023/04/05 00:11:03;;;;;;;8.90;8.30;;;;;;;;;;5014042;28;20037;-50
2023/04/05 00:13:29;;;;;;;9.85;9.15;;;;;;;;;;5016107;28;20061;-52
2023/04/05 00:15:57;;;;;;;8.90;8.30;;;;;;;;;;5014425;28;20033;-49
2023/04/05 00:18:22;;;;;;;9.02;8.43;;;;;;;;;;5016624;28;20356;-51
2023/04/05 00:20:51;;;;;;;8.95;8.18;;;;;;;;;;5008367;28;20040;-52
2023/04/05 00:23:17;;;;;;;8.07;7.57;;;;;;;;;;5013491;28;20038;-49
2023/04/05 00:25:43;;;;;;;8.50;7.90;;;;;;;;;;5011742;28;20033;-52
2023/04/05 00:28:09;;;;;;;8.60;8.07;;;;;;;;;;5013615;28;20337;-50
2023/04/05 00:30:35;;;;;;;8.25;7.75;;;;;;;;;;5012568;28;20099;-49
2023/04/05 00:33:00;;;;;;;8.35;7.75;;;;;;;;;;5014199;28;20723;-51
2023/04/05 00:35:26;;;;;;;10.35;8.55;;;;;;;;;;5014073;28;20056;-51
2023/04/05 00:37:52;;;;;;;8.60;8.10;;;;;;;;;;5018094;28;20033;-50
2023/04/05 00:40:17;;;;;;;8.63;8.02;;;;;;;;;;5014205;28;20115;-49
2023/04/05 00:42:43;;;;;;;8.60;8.00;;;;;;;;;;5017852;28;20361;-51
2023/04/05 00:45:08;;;;;;;8.15;7.60;;;;;;;;;;5010278;28;20072;-53
2023/04/05 00:47:35;;;;;;;8.30;7.70;;;;;;;;;;5013945;28;20567;-49
2023/04/05 00:50:00;;;;;;;8.90;8.30;;;;;;;;;;5012493;28;20033;-50
2023/04/05 00:52:26;;;;;;;9.75;9.15;;;;;;;;;;5015551;28;20712;-50
2023/04/05 00:54:52;;;;;;;9.43;8.82;;;;;;;;;;5017170;28;20498;-53
2023/04/05 00:57:18;;;;;;;10.80;10.13;;;;;;;;;;5015290;28;20729;-52
2023/04/05 00:59:44;;;;;;;10.55;9.73;;;;;;;;;;5013020;28;20117;-51
2023/04/05 01:02:16;;;;;;;9.43;8.82;;;;;;;;;;5012115;28;20049;-49
2023/04/05 01:04:48;;;;;;;8.52;8.02;;;;;;;;;;5012736;28;20287;-49
2023/04/05 01:07:27;;;;;;;8.70;8.10;;;;;;;;;;5013309;28;20661;-48
2023/04/05 01:09:58;;;;;;;9.57;8.98;;;;;;;;;;5017497;28;20125;-49
2023/04/05 01:12:27;;;;;;;8.57;8.07;;;;;;;;;;5015180;28;20045;-50
2023/04/05 01:14:54;;;;;;;10.05;9.35;;;;;;;;;;5015651;28;20029;-51
2023/04/05 01:17:27;;;;;;;8.35;7.85;;;;;;;;;;5012443;28;20041;-50
2023/04/05 01:20:01;;;;;;;8.52;7.95;;;;;;;;;;5013475;28;20034;-49
2023/04/05 01:22:45;;;;;;;8.13;7.63;;;;;;;;;;5012691;28;20232;-49
2023/04/05 01:25:27;;;;;;;8.15;7.65;;;;;;;;;;5011870;28;20050;-50
2023/04/05 01:28:28;;;;;;;8.10;7.60;;;;;;;;;;5013599;28;20067;-50
2023/04/05 01:31:05;;;;;;;8.68;8.07;;;;;;;;;;5008670;28;20034;-48
2023/04/05 01:33:48;;;;;;;8.70;8.10;;;;;;;;;;5011029;28;20029;-48
2023/04/05 01:36:40;;;;;;;8.98;8.38;;;;;;;;;;5012894;28;20042;-48
2023/04/05 01:39:09;;;;;;;8.23;7.72;;;;;;;;;;5016024;28;20046;-53
2023/04/05 01:41:35;;;;;;;8.63;8.02;;;;;;;;;;5015314;28;20232;-46
2023/04/05 01:44:00;;;;;;;9.65;9.05;;;;;;;;;;5012462;28;20041;-49
2023/04/05 01:46:25;;;;;;;8.73;8.13;;;;;;;;;;5015357;28;20065;-50
2023/04/05 01:48:51;;;;;;;8.60;8.02;;;;;;;;;;5013408;28;20144;-49
2023/04/05 01:51:16;;;;;;;8.52;7.95;;;;;;;;;;5013263;28;20061;-47
2023/04/05 01:53:41;;;;;;;8.90;8.30;;;;;;;;;;5015518;28;20488;-48
2023/04/05 01:56:07;;;;;;;8.90;8.30;;;;;;;;;;5020425;28;20659;-47
2023/04/05 01:58:32;;;;;;;8.60;8.00;;;;;;;;;;5016482;28;20040;-48
2023/04/05 02:00:57;;;;;;;8.30;7.80;;;;;;;;;;5011656;28;20044;-54
2023/04/05 02:03:23;;;;;;;8.90;8.32;;;;;;;;;;5013293;28;20624;-49
2023/04/05 02:05:50;;;;;;;9.60;9.00;;;;;;;;;;5013006;28;20575;-47
2023/04/05 02:08:15;;;;;;;8.48;7.97;;;;;;;;;;5011201;28;20368;-49
2023/04/05 02:10:41;;;;;;;8.63;8.13;;;;;;;;;;5009572;28;20036;-47
2023/04/05 02:13:06;;;;;;;7.90;7.40;;;;;;;;;;5012791;28;20045;-50
2023/04/05 02:15:32;;;;;;;9.32;8.68;;;;;;;;;;5010787;28;20076;-50
2023/04/05 02:18:00;;;;;;;9.20;8.60;;;;;;;;;;5007969;28;20576;-50
2023/04/05 02:20:27;;;;;;;8.68;8.10;;;;;;;;;;5009647;28;20040;-48
2023/04/05 02:22:52;;;;;;;9.15;8.55;;;;;;;;;;5011621;28;20057;-47
2023/04/05 02:25:18;;;;;;;9.40;8.80;;;;;;;;;;5011226;28;20596;-52
2023/04/05 02:27:43;;;;;;;8.88;8.27;;;;;;;;;;5013616;28;20843;-48
2023/04/05 02:30:09;;;;;;;9.15;8.55;;;;;;;;;;5012584;28;20038;-47
2023/04/05 02:32:35;;;;;;;8.80;8.23;;;;;;;;;;5012524;28;20044;-48
2023/04/05 02:35:00;;;;;;;9.35;8.65;;;;;;;;;;5013396;28;20631;-50
2023/04/05 02:37:26;;;;;;;8.82;8.25;;;;;;;;;;5017667;28;20046;-51
2023/04/05 02:39:52;;;;;;;9.07;8.48;;;;;;;;;;5014118;28;20755;-49
2023/04/05 02:42:17;;;;;;;9.65;8.95;;;;;;;;;;5018241;28;20038;-48
2023/04/05 02:44:42;;;;;;;8.98;8.38;;;;;;;;;;5012305;28;20033;-52
2023/04/05 02:47:08;;;;;;;8.55;7.97;;;;;;;;;;5009806;28;20033;-47
2023/04/05 02:49:33;;;;;;;10.02;9.05;;;;;;;;;;5009826;28;20056;-47
2023/04/05 02:51:58;;;;;;;8.82;8.23;;;;;;;;;;5009165;28;20069;-48
2023/04/05 02:54:24;;;;;;;9.25;8.65;;;;;;;;;;5011407;28;20037;-50
2023/04/05 02:56:49;;;;;;;9.07;8.48;;;;;;;;;;5013071;28;20037;-49
2023/04/05 02:59:16;;;;;;;8.80;8.20;;;;;;;;;;5014072;28;20767;-49
2023/04/05 03:01:43;;;;;;;8.93;8.32;;;;;;;;;;5015374;28;20041;-49
2023/04/05 03:04:11;;;;;;;8.63;8.10;;;;;;;;;;5017485;28;20379;-51
2023/04/05 03:06:37;;;;;;;9.55;8.85;;;;;;;;;;5015764;28;20556;-47
2023/04/05 03:09:03;;;;;;;8.30;7.80;;;;;;;;;;5016358;28;20047;-51
2023/04/05 03:11:28;;;;;;;9.73;9.13;;;;;;;;;;5018317;28;20368;-48
2023/04/05 03:13:54;;;;;;;8.43;7.93;;;;;;;;;;5017204;28;20029;-51
2023/04/05 03:16:19;;;;;;;8.02;7.53;;;;;;;;;;5014164;28;20038;-49
2023/04/05 03:18:44;;;;;;;9.55;8.95;;;;;;;;;;5017144;28;20048;-51
2023/04/05 03:21:11;;;;;;;8.57;8.02;;;;;;;;;;5017205;28;20073;-50
2023/04/05 03:23:36;;;;;;;8.45;7.95;;;;;;;;;;5014154;28;20120;-48
2023/04/05 03:26:02;;;;;;;8.20;7.60;;;;;;;;;;5015109;28;20145;-48
2023/04/05 03:28:31;;;;;;;8.10;7.60;;;;;;;;;;5014571;28;20037;-48
2023/04/05 03:30:57;;;;;;;8.85;8.23;;;;;;;;;;5017982;28;20030;-46
2023/04/05 03:33:23;;;;;;;8.40;7.80;;;;;;;;;;5016083;28;20038;-47
2023/04/05 03:35:48;;;;;;;7.93;7.43;;;;;;;;;;5015674;28;20112;-50
2023/04/05 03:38:15;;;;;;;8.07;7.57;;;;;;;;;;5013992;28;20038;-49
2023/04/05 03:40:40;;;;;;;9.55;8.95;;;;;;;;;;5020810;28;20055;-49
2023/04/05 03:43:05;;;;;;;9.40;8.80;;;;;;;;;;5017244;28;20037;-49
2023/04/05 03:45:32;;;;;;;9.38;8.77;;;;;;;;;;5014837;28;20489;-48
2023/04/05 03:47:57;;;;;;;8.73;8.15;;;;;;;;;;5017776;28;20036;-48
2023/04/05 03:50:25;;;;;;;10.60;9.57;;;;;;;;;;5014252;28;20037;-49
2023/04/05 03:52:51;;;;;;;9.25;8.65;;;;;;;;;;5015851;28;20033;-48
2023/04/05 03:55:16;;;;;;;9.13;8.52;;;;;;;;;;5014384;28;20029;-47
2023/04/05 03:57:42;;;;;;;9.57;8.98;;;;;;;;;;5016902;28;20329;-50
2023/04/05 04:00:18;;;;;;;9.35;8.75;;;;;;;;;;5015898;28;20033;-49
2023/04/05 04:02:47;;;;;;;10.35;9.48;;;;;;;;;;5016136;28;20029;-50
2023/04/05 04:05:14;;;;;;;8.90;8.30;;;;;;;;;;5015078;28;20064;-50
2023/04/05 04:07:43;;;;;;;8.60;8.05;;;;;;;;;;5017099;28;20034;-49
2023/04/05 04:10:11;;;;;;;9.55;8.95;;;;;;;;;;5017693;28;20046;-49
2023/04/05 04:12:37;;;;;;;8.52;7.93;;;;;;;;;;5019477;28;23367;-49
2023/04/05 04:15:04;;;;;;;9.02;8.38;;;;;;;;;;5012660;28;20057;-48
2023/04/05 04:17:34;;;;;;;8.68;8.10;;;;;;;;;;5013427;28;20478;-50
2023/04/05 04:19:59;;;;;;;9.65;9.05;;;;;;;;;;5016714;28;20055;-48
2023/04/05 04:22:31;;;;;;;9.35;8.75;;;;;;;;;;5016458;28;20034;-50
2023/04/05 04:25:03;;;;;;;9.65;9.05;;;;;;;;;;5016009;28;20033;-50
2023/04/05 04:27:29;;;;;;;8.13;7.63;;;;;;;;;;5016752;28;20045;-50
2023/04/05 04:30:00;;;;;;;9.75;9.15;;;;;;;;;;5015509;28;20371;-51
2023/04/05 04:32:46;;;;;;;8.85;8.25;;;;;;;;;;5014449;28;20527;-49
2023/04/05 04:35:19;;;;;;;8.32;7.80;;;;;;;;;;5012512;28;20490;-48
2023/04/05 04:37:51;;;;;;;9.80;9.20;;;;;;;;;;5017923;28;20337;-50
2023/04/05 04:40:17;;;;;;;8.85;8.25;;;;;;;;;;5023519;28;20077;-48
2023/04/05 04:42:47;;;;;;;8.23;7.65;;;;;;;;;;5022966;28;20037;-47
2023/04/05 04:45:17;;;;;;;8.00;7.50;;;;;;;;;;5011131;28;20041;-49
2023/04/05 04:47:47;;;;;;;8.65;8.05;;;;;;;;;;5013761;28;20061;-50
2023/04/05 04:50:14;;;;;;;9.45;8.80;;;;;;;;;;5012610;28;20048;-48
2023/04/05 04:52:41;;;;;;;8.57;7.97;;;;;;;;;;5015131;28;20041;-48
2023/04/05 04:55:08;;;;;;;9.35;8.75;;;;;;;;;;5012807;28;20059;-51
2023/04/05 04:57:34;;;;;;;8.23;7.72;;;;;;;;;;5013655;28;20465;-51
2023/04/05 04:59:59;;;;;;;9.40;8.80;;;;;;;;;;5021106;28;20757;-50
2023/04/05 05:02:26;;;;;;;9.48;8.77;;;;;;;;;;5013674;28;20460;-52
2023/04/05 05:04:51;;;;;;;9.18;8.57;;;;;;;;;;5014995;28;20060;-51
2023/04/05 05:07:18;;;;;;;9.30;8.70;;;;;;;;;;5012194;28;20034;-50
2023/04/05 05:09:43;;;;;;;8.18;7.68;;;;;;;;;;5015763;28;20041;-53
2023/04/05 05:12:09;;;;;;;9.05;8.35;;;;;;;;;;5008610;28;20037;-51
2023/04/05 05:14:34;;;;;;;9.30;8.63;;;;;;;;;;5012274;28;20256;-52
2023/04/05 05:17:00;;;;;;;8.52;8.02;;;;;;;;;;5013136;28;20041;-49
2023/04/05 05:19:25;;;;;;;9.18;8.52;;;;;;;;;;5013410;28;20435;-52
2023/04/05 05:21:52;;;;;;;9.38;8.77;;;;;;;;;;5014190;28;20490;-52
2023/04/05 05:24:18;;;;;;;9.23;8.63;;;;;;;;;;5012601;28;20108;-53
2023/04/05 05:26:43;;;;;;;9.38;8.77;;;;;;;;;;5014001;28;20465;-51
2023/04/05 05:29:09;;;;;;;8.85;8.23;;;;;;;;;;5013310;28;20107;-50
2023/04/05 05:31:35;;;;;;;8.98;8.38;;;;;;;;;;5010868;28;20057;-48
2023/04/05 05:34:00;;;;;;;9.20;8.57;;;;;;;;;;5018924;28;20029;-52
2023/04/05 05:36:26;;;;;;;11.85;10.95;;;;;;;;;;5011825;28;20668;-50
2023/04/05 05:38:52;;;;;;;18.77;14.93;;;;;;;;;;5014036;28;20052;-51
2023/04/05 05:41:18;;;;;;;15.65;14.10;;;;;;;;;;5015726;28;20096;-50
2023/04/05 05:43:43;;;;;;;11.25;10.35;;;;;;;;;;5013625;28;20411;-49
2023/04/05 05:46:09;;;;;;;9.15;8.55;;;;;;;;;;5012979;28;20034;-50
2023/04/05 05:48:35;;;;;;;8.98;8.38;;;;;;;;;;5011760;28;20038;-50
2023/04/05 05:51:01;;;;;;;9.10;8.48;;;;;;;;;;5014245;28;20132;-50
2023/04/05 05:53:26;;;;;;;9.43;8.82;;;;;;;;;;5012563;28;20116;-49
2023/04/05 05:55:51;;;;;;;9.88;9.18;;;;;;;;;;5014537;28;20385;-51
2023/04/05 05:58:17;;;;;;;9.93;9.23;;;;;;;;;;5016854;28;20034;-50
2023/04/05 06:00:43;;;;;;;10.02;9.32;;;;;;;;;;5014015;28;20032;-53
2023/04/05 06:03:09;;;;;;;9.52;8.93;;;;;;;;;;5014463;28;20095;-52
2023/04/05 06:05:35;;;;;;;9.45;8.75;;;;;;;;;;5012451;28;20041;-48
2023/04/05 06:08:02;;;;;;;9.48;8.88;;;;;;;;;;5014066;28;20022;-50
2023/04/05 06:10:28;;;;;;;8.02;7.53;;;;;;;;;;5013021;28;20046;-48
2023/04/05 06:12:54;;;;;;;9.02;8.32;;;;;;;;;;5013278;28;20464;-51
2023/04/05 06:15:19;;;;;;;9.82;9.13;;;;;;;;;;5013710;28;20049;-50
2023/04/05 06:17:45;;;;;;;8.60;8.02;;;;;;;;;;5013094;28;20033;-51
2023/04/05 06:20:11;;;;;;;9.27;8.65;;;;;;;;;;5012257;28;20034;-50
2023/04/05 06:22:40;;;;;;;8.63;8.02;;;;;;;;;;5016135;28;20519;-51
2023/04/05 06:25:06;;;;;;;9.43;8.82;;;;;;;;;;5013736;28;20038;-50
2023/04/05 06:27:32;;;;;;;8.88;8.27;;;;;;;;;;5017814;28;20032;-48
2023/04/05 06:30:01;;;;;;;9.32;8.73;;;;;;;;;;5012151;28;20709;-50
2023/04/05 06:32:26;;;;;;;9.25;8.65;;;;;;;;;;5009661;28;20113;-52
2023/04/05 06:34:52;;;;;;;10.02;9.32;;;;;;;;;;5008225;28;20183;-51
2023/04/05 06:37:17;;;;;;;10.25;9.55;;;;;;;;;;5009487;28;20143;-50
2023/04/05 06:39:43;;;;;;;9.63;9.00;;;;;;;;;;5008902;28;20812;-50
2023/04/05 06:42:08;;;;;;;9.30;8.70;;;;;;;;;;5011755;28;20034;-51
2023/04/05 06:44:33;;;;;;;10.35;9.65;;;;;;;;;;5008698;28;20060;-50
2023/04/05 06:46:59;;;;;;;10.77;10.05;;;;;;;;;;5011654;28;20531;-51
2023/04/05 06:49:24;;;;;;;10.10;9.50;;;;;;;;;;5013230;28;20076;-50
2023/04/05 06:51:50;;;;;;;10.30;9.68;;;;;;;;;;5012359;28;20078;-49
2023/04/05 06:54:15;;;;;;;11.30;10.60;;;;;;;;;;5013095;28;20356;-51
2023/04/05 06:56:40;;;;;;;9.63;9.02;;;;;;;;;;5009490;28;20052;-48
2023/04/05 06:59:06;;;;;;;9.35;8.75;;;;;;;;;;5011544;28;20042;-49
2023/04/05 07:01:31;;;;;;;9.65;9.05;;;;;;;;;;5009999;28;20038;-48
2023/04/05 07:03:57;;;;;;;10.50;9.70;;;;;;;;;;5013388;28;20037;-49
2023/04/05 07:06:22;;;;;;;9.88;9.27;;;;;;;;;;5010912;28;20029;-52
2023/04/05 07:08:48;;;;;;;9.90;9.30;;;;;;;;;;5014527;28;20144;-52
2023/04/05 07:11:14;;;;;;;10.82;10.10;;;;;;;;;;5013203;28;20078;-49
2023/04/05 07:13:40;;;;;;;10.95;10.25;;;;;;;;;;5008934;28;20072;-49
2023/04/05 07:16:05;;;;;;;10.70;10.00;;;;;;;;;;5012904;28;20449;-47
2023/04/05 07:18:31;;;;;;;11.82;10.98;;;;;;;;;;5016047;28;20033;-49
2023/04/05 07:20:59;;;;;;;10.73;10.02;;;;;;;;;;5010148;28;20041;-52
2023/04/05 07:23:26;;;;;;;11.07;10.38;;;;;;;;;;5009598;28;20034;-52
2023/04/05 07:25:52;;;;;;;10.10;9.50;;;;;;;;;;5014235;28;20029;-51
2023/04/05 07:28:17;;;;;;;11.57;10.38;;;;;;;;;;5009169;28;20099;-51
2023/04/05 07:30:42;;;;;;;10.45;9.75;;;;;;;;;;5010380;28;20052;-51
2023/04/05 07:33:08;;;;;;;11.32;10.63;;;;;;;;;;5009085;28;20041;-50
2023/04/05 07:35:33;;;;;;;11.90;11.20;;;;;;;;;;5010556;28;20054;-51
2023/04/05 07:37:59;;;;;;;13.45;12.65;;;;;;;;;;5018912;28;20486;-50
2023/04/05 07:40:24;;;;;;;13.18;12.38;;;;;;;;;;5012239;28;20472;-50
2023/04/05 07:42:49;;;;;;;13.00;12.20;;;;;;;;;;5012395;28;20029;-49
2023/04/05 07:45:15;;;;;;;12.55;11.75;;;;;;;;;;5014838;28;20033;-51
2023/04/05 07:47:40;;;;;;;13.07;12.27;;;;;;;;;;5016086;28;20116;-51
2023/04/05 07:50:08;;;;;;;13.18;12.38;;;;;;;;;;5016046;28;20432;-48
2023/04/05 07:52:34;;;;;;;13.35;12.55;;;;;;;;;;5015245;28;20037;-53
2023/04/05 07:54:59;;;;;;;11.35;10.65;;;;;;;;;;5016469;28;20034;-48
2023/04/05 07:57:25;;;;;;;13.07;12.27;;;;;;;;;;5010040;28;20040;-50
2023/04/05 07:59:53;;;;;;;13.18;12.38;;;;;;;;;;5018240;28;20117;-53
2023/04/05 08:02:19;;;;;;;11.77;11.07;;;;;;;;;;5018035;28;20091;-53
2023/04/05 08:04:44;;;;;;;12.00;11.30;;;;;;;;;;5014449;28;20033;-50
2023/04/05 08:07:10;;;;;;;12.95;12.10;;;;;;;;;;5016262;28;20038;-51
2023/04/05 08:09:36;;;;;;;12.35;11.55;;;;;;;;;;5013535;28;20064;-51
2023/04/05 08:12:01;;;;;;;11.57;10.88;;;;;;;;;;5014193;28;20062;-53
2023/04/05 08:14:27;;;;;;;11.68;10.98;;;;;;;;;;5014916;28;20030;-52
2023/04/05 08:16:53;;;;;;;13.00;12.20;;;;;;;;;;5017193;28;20033;-52
2023/04/05 08:19:18;;;;;;;12.43;11.73;;;;;;;;;;5012674;28;20056;-54
2023/04/05 08:21:44;;;;;;;13.35;12.55;;;;;;;;;;5012782;28;20029;-53
2023/04/05 08:24:09;;;;;;;12.55;11.85;;;;;;;;;;5012381;28;20352;-54
2023/04/05 08:26:35;;;;;;;13.48;12.68;;;;;;;;;;5011240;28;20163;-53
2023/04/05 08:29:00;;;;;;;12.73;11.98;;;;;;;;;;5012368;28;20115;-51
2023/04/05 08:31:26;;;;;;;13.13;12.32;;;;;;;;;;5010656;28;20037;-51
2023/04/05 08:33:51;;;;;;;14.63;13.80;;;;;;;;;;5014564;28;20337;-52
2023/04/05 08:36:16;;;;;;;16.30;15.32;;;;;;;;;;5015054;28;20341;-53
2023/04/05 08:38:42;;;;;;;14.98;14.07;;;;;;;;;;5014472;28;20060;-53
2023/04/05 08:41:17;;;;;;;15.50;14.60;;;;;;;;;;5011345;28;20048;-53
2023/04/05 08:44:03;;;;;;;15.70;14.80;;;;;;;;;;5014132;28;20037;-53
2023/04/05 08:46:30;;;;;;;16.80;15.82;;;;;;;;;;5015342;28;20037;-53
2023/04/05 08:48:57;;;;;;;17.92;16.92;;;;;;;;;;5014972;28;20566;-52
2023/04/05 08:51:23;;;;;;;16.83;15.93;;;;;;;;;;5018597;28;20601;-51
2023/04/05 08:53:49;;;;;;;18.00;16.92;;;;;;;;;;5016145;28;20036;-51
2023/04/05 08:56:17;;;;;;;16.20;15.30;;;;;;;;;;5015294;28;20356;-52
2023/04/05 08:59:04;;;;;;;17.40;16.25;;;;;;;;;;5011152;28;20124;-53
2023/04/05 09:01:31;;;;;;;18.15;17.05;;;;;;;;;;5011874;28;20076;-53
2023/04/05 09:04:04;;;;;;;17.55;16.55;;;;;;;;;;5013048;28;20026;-54
2023/04/05 09:06:30;;;;;;;16.77;15.88;;;;;;;;;;5015297;28;20084;-51
2023/04/05 09:08:58;;;;;;;16.50;15.60;;;;;;;;;;5015651;28;20053;-50
2023/04/05 09:11:24;;;;;;;17.25;16.25;;;;;;;;;;5015782;28;20034;-52
2023/04/05 09:13:50;;;;;;;17.30;16.30;;;;;;;;;;5013901;28;20357;-50
2023/04/05 09:16:16;;;;;;;17.13;16.13;;;;;;;;;;5014831;28;20042;-54
2023/04/05 09:18:42;;;;;;;18.42;17.35;;;;;;;;;;5015118;28;20033;-53
2023/04/05 09:21:08;;;;;;;17.50;16.50;;;;;;;;;;5012022;28;20856;-50
2023/04/05 09:23:34;;;;;;;18.23;17.23;;;;;;;;;;5015085;28;20124;-53
2023/04/05 09:26:02;;;;;;;16.33;15.43;;;;;;;;;;5012692;28;20602;-49
2023/04/05 09:28:40;;;;;;;16.58;15.68;;;;;;;;;;5012566;28;20116;-54
2023/04/05 09:31:05;;;;;;;16.35;15.45;;;;;;;;;;5013222;28;20041;-51
2023/04/05 09:33:31;;;;;;;16.80;15.60;;;;;;;;;;5015724;28;20095;-52
2023/04/05 09:35:56;;;;;;;16.15;15.25;;;;;;;;;;5013630;28;20083;-53
2023/04/05 09:38:41;;;;;;;17.73;16.73;;;;;;;;;;5013315;28;20101;-53
2023/04/05 09:41:09;;;;;;;15.05;14.20;;;;;;;;;;5009323;28;20104;-53
2023/04/05 09:43:37;;;;;;;16.17;15.15;;;;;;;;;;5013749;28;20106;-52
2023/04/05 09:46:02;;;;;;;13.25;12.45;;;;;;;;;;5014250;28;20480;-49
2023/04/05 09:48:50;;;;;;;11.98;11.27;;;;;;;;;;5012730;28;20046;-49
2023/04/05 09:51:16;;;;;;;13.40;12.60;;;;;;;;;;5019268;28;20632;-49
2023/04/05 09:53:59;;;;;;;13.10;12.30;;;;;;;;;;5014249;28;20122;-51
2023/04/05 09:56:31;;;;;;;13.50;12.70;;;;;;;;;;5011409;28;20052;-51
2023/04/05 09:59:15;;;;;;;13.00;12.20;;;;;;;;;;5012832;28;20030;-51
2023/04/05 10:01:44;;;;;;;13.23;12.43;;;;;;;;;;5007279;28;20045;-50
2023/04/05 10:04:09;;;;;;;12.88;12.07;;;;;;;;;;5012801;28;20039;-51
2023/04/05 10:06:40;;;;;;;14.35;13.25;;;;;;;;;;5014631;28;20033;-53
2023/04/05 10:09:07;;;;;;;13.52;12.73;;;;;;;;;;5015392;28;20518;-52
2023/04/05 10:11:35;;;;;;;12.27;11.57;;;;;;;;;;5013706;28;20029;-52
2023/04/05 10:14:02;;;;;;;13.23;12.32;;;;;;;;;;5014171;28;20038;-52
2023/04/05 10:16:31;;;;;;;13.30;12.50;;;;;;;;;;5012611;28;20068;-50
2023/04/05 10:18:56;;;;;;;11.88;11.18;;;;;;;;;;5014110;28;20033;-49
2023/04/05 10:21:25;;;;;;;13.07;12.27;;;;;;;;;;5010475;28;20042;-51
2023/04/05 10:24:00;;;;;;;13.63;12.82;;;;;;;;;;5010479;28;20076;-52
2023/04/05 10:26:53;;;;;;;13.35;12.55;;;;;;;;;;5011942;28;20109;-52
2023/04/05 10:29:26;;;;;;;13.73;12.93;;;;;;;;;;5009823;28;20033;-52
2023/04/05 10:32:02;;;;;;;21.40;14.07;;;;;;;;;;5012628;28;20026;-49
2023/04/05 10:34:44;;;;;;;15.23;14.32;;;;;;;;;;5013129;28;20032;-50
2023/04/05 10:37:25;;;;;;;13.57;12.40;;;;;;;;;;5010487;28;20046;-51
2023/04/05 10:39:51;;;;;;;13.48;12.68;;;;;;;;;;5011239;28;20060;-52
2023/04/05 10:42:26;;;;;;;13.55;12.75;;;;;;;;;;5015333;28;20113;-52
2023/04/05 10:45:01;;;;;;;14.48;13.57;;;;;;;;;;5013680;28;20100;-51
2023/04/05 10:47:28;;;;;;;13.82;13.02;;;;;;;;;;5012975;28;20034;-50
2023/04/05 10:49:56;;;;;;;12.55;11.85;;;;;;;;;;5018671;28;20029;-48
2023/04/05 10:52:22;;;;;;;14.57;13.60;;;;;;;;;;5015410;28;20124;-51
2023/04/05 10:54:48;;;;;;;13.38;12.55;;;;;;;;;;5012776;28;20170;-50
2023/04/05 10:57:14;;;;;;;14.40;13.50;;;;;;;;;;5011637;28;20044;-52
2023/04/05 10:59:44;;;;;;;13.85;13.05;;;;;;;;;;5010827;28;20076;-53
2023/04/05 11:02:10;;;;;;;13.57;12.77;;;;;;;;;;5012867;28;20483;-50
2023/04/05 11:04:36;;;;;;;14.52;13.73;;;;;;;;;;5013661;28;20064;-52
2023/04/05 11:07:12;;;;;;;15.43;14.52;;;;;;;;;;5012605;28;20030;-49
2023/04/05 11:09:49;;;;;;;14.40;13.57;;;;;;;;;;5009781;28;20123;-53
2023/04/05 11:12:15;;;;;;;14.32;13.52;;;;;;;;;;5011842;28;20523;-50
2023/04/05 11:14:42;;;;;;;14.45;13.63;;;;;;;;;;5010638;28;20124;-53
2023/04/05 11:17:27;;;;;;;13.70;12.90;;;;;;;;;;5009390;28;20026;-50
2023/04/05 11:20:04;;;;;;;15.27;14.18;;;;;;;;;;5009528;28;20053;-51
2023/04/05 11:22:29;;;;;;;14.57;13.77;;;;;;;;;;5013274;28;20041;-53
2023/04/05 11:24:58;;;;;;;14.90;14.02;;;;;;;;;;5015728;28;20460;-50
2023/04/05 11:27:25;;;;;;;14.48;13.60;;;;;;;;;;5011899;28;20033;-51
2023/04/05 11:29:51;;;;;;;15.30;14.40;;;;;;;;;;5013751;28;20049;-51
2023/04/05 11:32:17;;;;;;;15.90;14.90;;;;;;;;;;5012635;28;20654;-52
2023/04/05 11:34:43;;;;;;;15.48;14.48;;;;;;;;;;5014453;28;20451;-54
2023/04/05 11:37:09;;;;;;;15.68;14.73;;;;;;;;;;5006089;28;20051;-52
2023/04/05 11:39:37;;;;;;;14.85;13.95;;;;;;;;;;5017421;28;20041;-49
2023/04/05 11:42:03;;;;;;;13.95;13.15;;;;;;;;;;5012891;28;20038;-52
2023/04/05 11:44:50;;;;;;;15.23;14.35;;;;;;;;;;5013531;28;20153;-52
2023/04/05 11:47:17;;;;;;;14.82;13.93;;;;;;;;;;5014831;28;20048;-52
2023/04/05 11:49:42;;;;;;;14.18;13.27;;;;;;;;;;5015136;28;20133;-50
2023/04/05 11:52:16;;;;;;;12.90;12.10;;;;;;;;;;5016613;28;20709;-51
2023/04/05 11:54:46;;;;;;;13.88;13.07;;;;;;;;;;5014660;28;20046;-51
2023/04/05 11:57:18;;;;;;;13.48;12.68;;;;;;;;;;5013470;28;20050;-51
2023/04/05 11:59:44;;;;;;;14.40;13.55;;;;;;;;;;5017903;28;20037;-49
2023/04/05 12:02:09;;;;;;;15.27;14.38;;;;;;;;;;5011110;28;20498;-52
2023/04/05 12:04:36;;;;;;;15.13;14.23;;;;;;;;;;5015588;28;20034;-52
2023/04/05 12:07:11;;;;;;;14.23;13.35;;;;;;;;;;5013520;28;20124;-52
2023/04/05 12:09:59;;;;;;;14.95;14.05;;;;;;;;;;5013330;28;20072;-53
2023/04/05 12:12:25;;;;;;;15.90;14.38;;;;;;;;;;5012739;28;20043;-52
2023/04/05 12:14:50;;;;;;;15.60;14.70;;;;;;;;;;5012253;28;20504;-50
2023/04/05 12:17:15;;;;;;;13.38;12.55;;;;;;;;;;5014262;28;20143;-54
2023/04/05 12:19:41;;;;;;;14.13;13.32;;;;;;;;;;5015850;28;20060;-50
2023/04/05 12:22:07;;;;;;;14.70;13.80;;;;;;;;;;5013895;28;20065;-54
2023/04/05 12:24:32;;;;;;;13.43;12.63;;;;;;;;;;5014319;28;20053;-51
2023/04/05 12:26:59;;;;;;;14.18;13.38;;;;;;;;;;5014323;28;20460;-50
2023/04/05 12:29:24;;;;;;;15.00;14.10;;;;;;;;;;5013351;28;20103;-53
2023/04/05 12:31:50;;;;;;;15.45;14.55;;;;;;;;;;5013938;28;20041;-50
2023/04/05 12:34:22;;;;;;;14.63;13.82;;;;;;;;;;5006305;28;20037;-50
2023/04/05 12:36:48;;;;;;;14.65;13.85;;;;;;;;;;5015439;28;20168;-53
2023/04/05 12:39:15;;;;;;;15.65;14.75;;;;;;;;;;5015753;28;20078;-50
2023/04/05 12:41:41;;;;;;;14.10;13.30;;;;;;;;;;5012918;28;20033;-52
2023/04/05 12:44:26;;;;;;;15.43;14.52;;;;;;;;;;5013921;28;20046;-50
2023/04/05 12:47:00;;;;;;;15.50;14.60;;;;;;;;;;5020499;28;20068;-51
2023/04/05 12:49:26;;;;;;;15.50;14.60;;;;;;;;;;5016330;28;20084;-51
2023/04/05 12:51:51;;;;;;;16.35;15.35;;;;;;;;;;5014658;28;20088;-49
2023/04/05 12:54:22;;;;;;;13.95;13.15;;;;;;;;;;5014912;28;20033;-50
2023/04/05 12:56:52;;;;;;;15.20;14.30;;;;;;;;;;5014313;28;20034;-51
2023/04/05 12:59:18;;;;;;;15.70;14.55;;;;;;;;;;5014582;28;20419;-53
2023/04/05 13:01:43;;;;;;;14.93;14.05;;;;;;;;;;5014652;28;20099;-51
2023/04/05 13:04:08;;;;;;;14.35;13.52;;;;;;;;;;5015481;28;20067;-53
2023/04/05 13:06:34;;;;;;;15.45;14.55;;;;;;;;;;5014579;28;20100;-51
2023/04/05 13:08:59;;;;;;;15.23;13.77;;;;;;;;;;5011178;28;20037;-57
2023/04/05 13:11:24;;;;;;;15.80;14.90;;;;;;;;;;5014791;28;20496;-55
2023/04/05 13:13:50;;;;;;;16.23;15.23;;;;;;;;;;5014465;28;20044;-57
2023/04/05 13:16:15;;;;;;;14.80;13.98;;;;;;;;;;5015674;28;20038;-49
2023/04/05 13:18:41;;;;;;;15.10;14.20;;;;;;;;;;5017869;28;20124;-50
2023/04/05 13:21:08;;;;;;;14.43;13.63;;;;;;;;;;5014489;28;20045;-52
2023/04/05 13:23:37;;;;;;;17.25;16.25;;;;;;;;;;5015958;28;20045;-54
2023/04/05 13:26:03;;;;;;;15.75;14.85;;;;;;;;;;5016268;28;20037;-53
2023/04/05 13:28:29;;;;;;;15.35;14.45;;;;;;;;;;5012702;28;20041;-51
2023/04/05 13:30:54;;;;;;;14.85;13.95;;;;;;;;;;5013732;28;20076;-52
2023/04/05 13:33:20;;;;;;;14.70;13.90;;;;;;;;;;5015168;28;20068;-50
2023/04/05 13:35:46;;;;;;;15.02;14.18;;;;;;;;;;5015344;28;20033;-51
2023/04/05 13:38:11;;;;;;;14.15;13.35;;;;;;;;;;5014644;28;20037;-52
2023/04/05 13:40:37;;;;;;;15.02;14.13;;;;;;;;;;5011194;28;20034;-53
2023/04/05 13:43:03;;;;;;;15.10;14.20;;;;;;;;;;5016753;28;20037;-51
2023/04/05 13:45:28;;;;;;;15.73;14.77;;;;;;;;;;5015824;28;20038;-50
2023/04/05 13:47:54;;;;;;;15.80;14.90;;;;;;;;;;5029682;28;20053;-51
2023/04/05 13:50:19;;;;;;;15.57;14.68;;;;;;;;;;5012560;28;20034;-50
2023/04/05 13:52:45;;;;;;;15.85;14.95;;;;;;;;;;5012699;28;20360;-49
2023/04/05 13:55:10;;;;;;;17.02;16.02;;;;;;;;;;5012822;28;20029;-52
2023/04/05 13:57:35;;;;;;;16.33;15.43;;;;;;;;;;5003972;28;20057;-53
2023/04/05 14:00:01;;;;;;;18.98;17.95;;;;;;;;;;5012491;28;20467;-49
2023/04/05 14:02:27;;;;;;;17.40;16.40;;;;;;;;;;5010596;28;20029;-53
2023/04/05 14:04:52;;;;;;;17.58;16.58;;;;;;;;;;5013313;28;20542;-52
2023/04/05 14:07:22;;;;;;;17.85;16.85;;;;;;;;;;5014392;28;20936;-52
2023/04/05 14:09:47;;;;;;;20.40;19.30;;;;;;;;;;5014809;28;20468;-51
2023/04/05 14:12:13;;;;;;;17.63;16.63;;;;;;;;;;5011734;28;20088;-50
2023/04/05 14:14:38;;;;;;;19.38;18.27;;;;;;;;;;5011471;28;20544;-53
2023/04/05 14:17:04;;;;;;;20.30;19.17;;;;;;;;;;5013830;28;20463;-51
2023/04/05 14:19:29;;;;;;;21.92;20.65;;;;;;;;;;5013806;28;20096;-52
2023/04/05 14:21:55;;;;;;;18.70;17.67;;;;;;;;;;5015555;28;20064;-49
2023/04/05 14:24:21;;;;;;;20.48;19.38;;;;;;;;;;5009236;28;20037;-50
2023/04/05 14:26:48;;;;;;;19.38;18.27;;;;;;;;;;5009587;28;20410;-51
2023/04/05 14:29:17;;;;;;;20.50;19.33;;;;;;;;;;5013765;28;20053;-50
2023/04/05 14:31:44;;;;;;;19.95;18.85;;;;;;;;;;5015171;28;20054;-49